createdAt,value
2022-10-19T00:03:31.335Z,0
2022-10-19T00:08:32.933Z,0
2022-10-19T00:13:34.545Z,0
2022-10-19T00:18:36.097Z,0
2022-10-19T00:23:38.113Z,0
2022-10-19T00:28:39.768Z,0
2022-10-19T00:33:41.257Z,0
2022-10-19T00:38:42.783Z,0
2022-10-19T00:43:44.245Z,0
2022-10-19T00:48:45.747Z,0
2022-10-19T00:53:47.620Z,0
2022-10-19T00:58:49.175Z,0
2022-10-19T01:03:50.646Z,0
2022-10-19T01:08:52.159Z,0
2022-10-19T01:13:53.655Z,0
2022-10-19T01:18:55.190Z,0
2022-10-19T01:23:57.016Z,0
2022-10-19T01:28:58.607Z,0
2022-10-19T01:34:00.202Z,0
2022-10-19T01:39:01.813Z,0
2022-10-19T01:44:03.365Z,0
2022-10-19T01:49:04.825Z,0
2022-10-19T01:54:06.753Z,0
2022-10-19T01:59:08.206Z,0
2022-10-19T02:04:09.804Z,0
2022-10-19T02:09:11.369Z,0
2022-10-19T02:14:12.903Z,0
2022-10-19T02:19:14.511Z,0
2022-10-19T02:24:16.875Z,0
2022-10-19T02:29:18.296Z,0
2022-10-19T02:34:19.815Z,0
2022-10-19T02:39:21.296Z,0
2022-10-19T02:44:22.842Z,0
2022-10-19T02:49:24.280Z,0
2022-10-19T02:54:26.508Z,0
2022-10-19T02:59:27.980Z,0
2022-10-19T03:04:29.467Z,0
2022-10-19T03:09:31.101Z,0.88715
2022-10-19T03:14:32.875Z,0.88715
2022-10-19T03:19:35.103Z,0.47405
2022-10-19T03:24:37.377Z,2.50815
2022-10-19T03:29:39.177Z,5.0163
2022-10-19T03:34:40.937Z,9.84815
2022-10-19T03:39:42.715Z,12.1167
2022-10-19T03:44:44.475Z,19.03265
2022-10-19T03:49:46.274Z,26.50195
2022-10-19T03:54:48.408Z,36.66385
2022-10-19T03:59:49.902Z,50.6802
2022-10-19T04:04:51.673Z,57.3014
2022-10-19T04:09:53.471Z,67.2237
2022-10-19T04:14:57.647Z,82.4019
2022-10-19T04:19:59.811Z,98.9264
2022-10-19T04:25:01.893Z,115.8198
2022-10-19T04:30:03.692Z,135.0369
2022-10-19T04:35:05.525Z,152.6681
2022-10-19T04:40:10.387Z,178.2478
2022-10-19T04:45:14.290Z,209.63675
2022-10-19T04:50:15.985Z,235.71465
2022-10-19T04:55:18.282Z,273.0973
2022-10-19T05:00:19.746Z,300.48535
2022-10-19T05:05:21.199Z,335.72875
2022-10-19T05:10:22.657Z,371.45135
2022-10-19T05:15:24.147Z,420.63695
2022-10-19T05:20:25.641Z,453.2429
2022-10-19T05:25:28.052Z,489.37055
2022-10-19T05:30:29.514Z,507.26035
2022-10-19T05:35:31.012Z,533.0055
2022-10-19T05:40:32.817Z,557.79225
2022-10-19T05:45:34.638Z,596.20745
2022-10-19T05:50:36.402Z,615.9589
2022-10-19T05:55:38.712Z,631.19225
2022-10-19T06:00:40.539Z,648.9889
2022-10-19T06:05:42.265Z,687.9023
2022-10-19T06:10:44.066Z,711.10315
2022-10-19T06:15:45.752Z,725.9676
2022-10-19T06:20:47.875Z,748.55995
2022-10-19T06:25:49.891Z,762.466
2022-10-19T06:30:51.827Z,779.8576
2022-10-19T06:35:53.754Z,794.61175
2022-10-19T06:40:55.671Z,811.26555
2022-10-19T06:45:57.485Z,825.46635
2022-10-19T06:50:59.278Z,839.612
2022-10-19T06:56:01.294Z,856.21065
2022-10-19T07:01:03.155Z,869.3599
2022-10-19T07:06:04.888Z,874.59865
2022-10-19T07:11:06.574Z,899.69915
2022-10-19T07:16:08.331Z,915.0808
2022-10-19T07:21:10.112Z,910.6007
2022-10-19T07:26:12.347Z,920.68845
2022-10-19T07:31:13.836Z,926.83045
2022-10-19T07:36:15.369Z,950.43635
2022-10-19T07:41:16.862Z,964.32525
2022-10-19T07:46:18.502Z,986.4194
2022-10-19T07:51:20.128Z,1019.26495
2022-10-19T07:56:22.736Z,1034.07425
2022-10-19T08:01:24.233Z,1060.88995
2022-10-19T08:06:25.754Z,1054.3429
2022-10-19T08:11:27.290Z,1083.55645
2022-10-19T08:16:28.925Z,1127.1001
2022-10-19T08:21:30.403Z,1163.4692
2022-10-19T08:26:33.179Z,1186.24785
2022-10-19T08:31:34.659Z,1225.5663
2022-10-19T08:36:36.284Z,1243.9733
2022-10-19T08:41:38.000Z,1223.06
2022-10-19T08:46:39.535Z,1222.8014
2022-10-19T08:51:41.013Z,1233.71825
2022-10-19T08:56:50.998Z,1286.5076
2022-10-19T09:01:53.137Z,1220.40355
2022-10-19T09:06:54.716Z,1200.5228
2022-10-19T09:11:56.562Z,1220.2075
2022-10-19T09:16:58.094Z,1302.56955
2022-10-19T09:21:59.568Z,1251.18955
2022-10-19T09:27:01.406Z,1324.0742
2022-10-19T09:32:02.893Z,1325.1999
2022-10-19T09:37:04.398Z,1376.98125
2022-10-19T09:42:06.032Z,1398.8928
2022-10-19T09:47:10.230Z,1393.6559
2022-10-19T09:52:14.475Z,1465.71145
2022-10-19T09:57:16.442Z,1390.15505
2022-10-19T10:02:17.940Z,1216.95095
2022-10-19T10:07:19.457Z,1158.36025
2022-10-19T10:12:21.361Z,1121.0346
2022-10-19T10:17:23.099Z,1102.42785
2022-10-19T10:22:24.870Z,1024.85545
2022-10-19T10:27:26.932Z,1041.88605
2022-10-19T10:32:28.776Z,1228.92575
2022-10-19T10:37:30.808Z,1197.0729
2022-10-19T10:42:33.111Z,600.4688
2022-10-19T10:47:35.598Z,472.2014
2022-10-19T10:52:37.759Z,288.5874
2022-10-19T10:57:39.969Z,128.19325
2022-10-19T11:02:41.559Z,83.15685
2022-10-19T11:07:43.384Z,67.9235
2022-10-19T11:12:45.178Z,67.00125
2022-10-19T11:17:46.906Z,78.38015
2022-10-19T11:22:48.677Z,48.0979
2022-10-19T11:27:50.680Z,51.58345
2022-10-19T11:32:52.421Z,55.4379
2022-10-19T11:38:17.596Z,55.62235
2022-10-19T11:43:22.364Z,60.0853
2022-10-19T11:48:26.367Z,54.7001
2022-10-19T11:53:27.849Z,50.10785
2022-10-19T11:58:34.698Z,42.3438
2022-10-19T12:03:36.636Z,43.9297
2022-10-19T12:08:38.141Z,42.5834
2022-10-19T12:13:39.775Z,44.7778
2022-10-19T12:18:41.533Z,37.4378
2022-10-19T12:23:43.041Z,33.58335
2022-10-19T12:28:44.920Z,33.21445
2022-10-19T12:33:46.501Z,29.7289
2022-10-19T12:38:50.821Z,31.6837
2022-10-19T12:43:54.102Z,31.6837
2022-10-19T12:48:55.603Z,27.58965
2022-10-19T12:53:57.145Z,34.0074
2022-10-19T12:58:59.400Z,36.3311
2022-10-19T13:04:00.920Z,33.21445
2022-10-19T13:09:02.698Z,33.3989
2022-10-19T13:14:04.742Z,33.58335
2022-10-19T13:19:06.508Z,33.7678
2022-10-19T13:24:08.296Z,33.95225
2022-10-19T13:29:10.248Z,36.27595
2022-10-19T13:34:11.704Z,35.483
2022-10-19T13:39:13.177Z,35.8519
2022-10-19T13:44:14.691Z,41.66115
2022-10-19T13:49:16.143Z,41.42155
2022-10-19T13:54:17.665Z,46.6223
2022-10-19T13:59:19.537Z,48.89085
2022-10-19T14:04:21.073Z,54.27605
2022-10-19T14:09:22.532Z,57.70645
2022-10-19T14:14:24.034Z,63.09165
2022-10-19T14:19:25.678Z,68.47685
2022-10-19T14:24:27.339Z,69.58355
2022-10-19T14:29:29.269Z,71.29875
2022-10-19T14:34:31.029Z,77.29245
2022-10-19T14:39:32.786Z,80.1695
2022-10-19T14:44:34.322Z,84.5773
2022-10-19T14:49:36.125Z,90.88475
2022-10-19T14:54:37.975Z,96.4544
2022-10-19T14:59:39.971Z,99.57105
2022-10-19T15:04:41.681Z,93.5222
2022-10-19T15:09:48.163Z,86.7907
2022-10-19T15:14:50.432Z,71.05915
2022-10-19T15:19:51.966Z,59.79055
2022-10-19T15:24:53.602Z,49.02015
2022-10-19T15:29:55.623Z,44.61235
2022-10-19T15:34:57.348Z,37.27235
2022-10-19T15:39:59.123Z,33.7868
2022-10-19T15:45:01.025Z,26.6864
2022-10-19T15:50:02.793Z,20.9323
2022-10-19T15:55:04.643Z,14.2008
2022-10-19T16:00:06.949Z,15.4178
2022-10-19T16:05:08.711Z,9.23965
2022-10-19T16:10:10.524Z,3.24595
2022-10-19T16:15:12.387Z,3.85445
2022-10-19T16:20:13.852Z,2.50815
2022-10-19T16:25:15.486Z,1.3463
2022-10-19T16:30:17.245Z,1.16185
2022-10-19T16:35:18.810Z,0.88715
2022-10-19T16:40:20.371Z,0.88715
2022-10-19T16:45:22.104Z,0.88715
2022-10-19T16:50:23.549Z,0
2022-10-19T16:55:25.300Z,0
2022-10-19T17:00:27.320Z,0
2022-10-19T17:05:28.784Z,0
2022-10-19T17:10:30.635Z,0
2022-10-19T17:15:42.531Z,0
2022-10-19T17:20:45.492Z,0
2022-10-19T17:25:47.281Z,0
2022-10-19T17:30:49.250Z,0
2022-10-19T17:35:51.013Z,0
2022-10-19T17:40:52.757Z,0
2022-10-19T17:45:54.591Z,0
2022-10-19T17:50:56.269Z,0
2022-10-19T17:55:58.197Z,0
2022-10-19T18:01:00.346Z,0
2022-10-19T18:06:04.527Z,0
2022-10-19T18:11:08.798Z,0
2022-10-19T18:16:10.714Z,0
2022-10-19T18:21:12.451Z,0
2022-10-19T18:26:13.972Z,0
2022-10-19T18:31:15.668Z,0
2022-10-19T18:36:17.371Z,0
2022-10-19T18:41:18.875Z,0
2022-10-19T18:46:20.339Z,0
2022-10-19T18:51:21.804Z,0
2022-10-19T18:56:23.325Z,0
2022-10-19T19:01:25.100Z,0
2022-10-19T19:06:26.615Z,0
2022-10-19T19:16:45.193Z,0
2022-10-19T19:21:47.556Z,0
2022-10-19T19:26:49.796Z,0
2022-10-19T19:31:52.543Z,0
2022-10-19T19:36:54.823Z,0
2022-10-19T19:41:56.829Z,0
2022-10-19T19:46:59.104Z,0
2022-10-19T19:52:01.151Z,0
2022-10-19T19:57:03.226Z,0
2022-10-19T20:02:05.808Z,0
2022-10-19T20:07:07.993Z,0
2022-10-19T20:12:09.840Z,0
2022-10-19T20:17:12.022Z,0
2022-10-19T20:22:14.089Z,0
2022-10-19T20:27:15.815Z,0
2022-10-19T20:32:18.296Z,0
2022-10-19T20:37:20.232Z,0
2022-10-19T20:42:22.270Z,0
2022-10-19T20:47:23.982Z,0
2022-10-19T20:52:25.731Z,0
2022-10-19T20:57:27.446Z,0
2022-10-19T21:02:29.801Z,0
2022-10-19T21:07:32.004Z,0
2022-10-19T21:12:34.366Z,0
2022-10-19T21:17:36.731Z,0
2022-10-19T21:22:39.445Z,0
2022-10-19T21:27:41.898Z,0
2022-10-19T21:32:44.301Z,0
2022-10-19T21:37:46.478Z,0
2022-10-19T21:42:48.545Z,0
2022-10-19T21:47:50.521Z,0
2022-10-19T21:52:52.610Z,0
2022-10-19T21:57:54.763Z,0
2022-10-19T22:02:57.130Z,0
2022-10-19T22:07:59.252Z,0
2022-10-19T22:13:01.512Z,0
2022-10-19T22:18:03.678Z,0
2022-10-19T22:23:05.907Z,0
2022-10-19T22:28:08.033Z,0
2022-10-19T22:33:09.963Z,0
2022-10-19T22:38:12.063Z,0
2022-10-19T22:43:14.141Z,0
2022-10-19T22:48:15.977Z,0
2022-10-19T22:53:17.631Z,0
2022-10-19T22:58:19.267Z,0
2022-10-19T23:03:23.290Z,0
2022-10-19T23:08:25.033Z,0
2022-10-19T23:13:27.456Z,0
2022-10-19T23:18:29.830Z,0
2022-10-19T23:23:37.917Z,0
2022-10-19T23:28:39.824Z,0
2022-10-19T23:33:47.799Z,0
2022-10-19T23:38:51.941Z,0
2022-10-19T23:43:53.661Z,0
2022-10-19T23:48:56.939Z,0
2022-10-19T23:53:58.737Z,0
2022-10-19T23:59:02.799Z,0
